Time;durP1;ratioP1;P1;durP2;ratioP2;P2;SDS_P1;SDS_P2;PMS_P1;PMS_P2;Temp;Humidity;BMP_temperature;BMP_pressure;BME280_temperature;BME280_humidity;BME280_pressure;Samples;Min_cycle;Max_cycle;Signal;HPM_P1;HPM_P2
2022/04/16 00:00:55;;;;;;;2.92;2.10;;;11.50;59.30;;;;;;5135265;27;20023;-75
2022/04/16 00:03:22;;;;;;;1.77;1.67;;;11.50;59.20;;;;;;5116591;27;20062;-75
2022/04/16 00:05:51;;;;;;;2.83;2.45;;;11.40;59.30;;;;;;5116706;27;20110;-74
2022/04/16 00:08:19;;;;;;;2.80;2.22;;;11.40;59.50;;;;;;5116635;27;20031;-75
2022/04/16 00:10:45;;;;;;;3.75;2.45;;;11.40;59.50;;;;;;5116734;27;20023;-75
2022/04/16 00:13:11;;;;;;;2.60;2.40;;;11.30;59.60;;;;;;5134448;27;20026;-75
2022/04/16 00:15:38;;;;;;;3.53;2.40;;;11.30;59.80;;;;;;5134728;27;20066;-75
2022/04/16 00:18:04;;;;;;;2.30;2.08;;;11.20;59.80;;;;;;5134611;27;20520;-75
2022/04/16 00:20:31;;;;;;;7.85;2.50;;;11.20;59.80;;;;;;5116475;27;20034;-75
2022/04/16 00:22:57;;;;;;;2.58;2.38;;;11.20;59.80;;;;;;5116368;27;20114;-75
2022/04/16 00:25:23;;;;;;;6.32;2.92;;;11.10;59.80;;;;;;5134788;27;20106;-75
2022/04/16 00:27:49;;;;;;;3.75;2.55;;;11.10;59.80;;;;;;5134786;27;20080;-76
2022/04/16 00:30:17;;;;;;;2.42;2.22;;;11.10;59.90;;;;;;5134455;27;20555;-75
2022/04/16 00:32:44;;;;;;;4.00;2.30;;;11.00;60.00;;;;;;5116249;27;20390;-75
2022/04/16 00:35:10;;;;;;;2.40;2.20;;;11.00;60.00;;;;;;5134713;27;20019;-75
2022/04/16 00:37:37;;;;;;;2.15;1.80;;;11.00;60.10;;;;;;5115992;27;20084;-75
2022/04/16 00:40:04;;;;;;;2.42;2.00;;;11.00;60.10;;;;;;5115951;27;20051;-75
2022/04/16 00:42:38;;;;;;;3.65;2.10;;;11.00;60.30;;;;;;5134156;27;20450;-76
2022/04/16 00:45:05;;;;;;;2.10;1.63;;;10.90;60.30;;;;;;5116198;28;20455;-76
2022/04/16 00:47:31;;;;;;;2.08;1.88;;;10.90;60.20;;;;;;5134481;27;20027;-75
2022/04/16 00:49:56;;;;;;;2.25;2.03;;;10.90;60.40;;;;;;5134260;27;20023;-76
2022/04/16 00:52:22;;;;;;;3.33;2.20;;;10.90;60.70;;;;;;5116052;27;20031;-75
2022/04/16 00:54:50;;;;;;;2.42;2.20;;;10.90;60.80;;;;;;5134400;27;20027;-76
2022/04/16 00:57:17;;;;;;;2.83;2.58;;;10.80;60.80;;;;;;5116017;28;20023;-76
2022/04/16 00:59:43;;;;;;;2.40;2.10;;;10.80;61.10;;;;;;5134309;27;20035;-75
2022/04/16 01:02:10;;;;;;;1.98;1.83;;;10.80;61.30;;;;;;5134043;28;20020;-76
2022/04/16 01:04:36;;;;;;;3.30;2.47;;;10.90;61.40;;;;;;5134241;28;20120;-76
2022/04/16 01:07:01;;;;;;;2.50;2.10;;;10.90;61.50;;;;;;5133984;28;20029;-75
2022/04/16 01:09:27;;;;;;;2.45;2.10;;;10.90;61.60;;;;;;5134469;28;20039;-76
2022/04/16 01:11:53;;;;;;;2.90;2.28;;;10.90;61.70;;;;;;5133875;28;20474;-76
2022/04/16 01:14:21;;;;;;;3.10;2.60;;;10.90;61.70;;;;;;5133776;28;20428;-75
2022/04/16 01:16:47;;;;;;;2.63;2.20;;;10.90;61.60;;;;;;5134088;28;20023;-76
2022/04/16 01:19:14;;;;;;;2.50;2.15;;;10.90;61.40;;;;;;5133680;28;20367;-76
2022/04/16 01:21:40;;;;;;;21.17;12.55;;;10.90;61.40;;;;;;5133658;28;20092;-75
2022/04/16 01:24:06;;;;;;;7.95;5.25;;;10.90;61.30;;;;;;5115548;28;20031;-75
2022/04/16 01:26:32;;;;;;;4.22;3.17;;;10.90;61.30;;;;;;5138477;27;20035;-76
2022/04/16 01:28:58;;;;;;;2.58;2.15;;;10.90;61.40;;;;;;5138079;27;20465;-76
2022/04/16 01:31:24;;;;;;;3.28;2.22;;;10.90;61.50;;;;;;5137812;27;20068;-76
2022/04/16 01:33:50;;;;;;;2.20;1.92;;;10.80;61.60;;;;;;5138019;27;20027;-76
2022/04/16 01:36:15;;;;;;;5.22;2.58;;;10.80;61.70;;;;;;5137690;27;20127;-76
2022/04/16 01:38:41;;;;;;;2.78;2.13;;;10.80;61.70;;;;;;5119372;27;20035;-76
2022/04/16 01:41:07;;;;;;;6.10;2.42;;;10.80;61.70;;;;;;5137971;27;20073;-76
2022/04/16 01:43:33;;;;;;;2.78;2.08;;;10.80;61.80;;;;;;5119409;27;20034;-76
2022/04/16 01:45:58;;;;;;;2.40;2.10;;;10.80;61.90;;;;;;5119094;27;20466;-76
2022/04/16 01:48:29;;;;;;;2.28;2.08;;;10.80;61.90;;;;;;5137741;27;20035;-76
2022/04/16 01:50:55;;;;;;;2.97;2.63;;;10.80;62.20;;;;;;5137797;27;20367;-76
2022/04/16 01:53:22;;;;;;;3.78;2.50;;;10.90;62.70;;;;;;5119161;27;20028;-76
2022/04/16 01:55:48;;;;;;;3.95;2.75;;;10.90;63.00;;;;;;5119167;27;20019;-76
2022/04/16 01:58:14;;;;;;;3.08;2.78;;;11.00;63.10;;;;;;5118767;27;20035;-76
2022/04/16 02:00:39;;;;;;;2.70;2.47;;;11.00;63.10;;;;;;5137508;27;20105;-76
2022/04/16 02:03:07;;;;;;;2.75;2.45;;;11.00;63.10;;;;;;5137181;27;20023;-76
2022/04/16 02:05:33;;;;;;;4.47;2.25;;;11.10;63.00;;;;;;5137429;27;20473;-76
2022/04/16 02:07:59;;;;;;;2.35;2.10;;;11.20;62.90;;;;;;5137384;27;20032;-76
2022/04/16 02:10:25;;;;;;;2.65;2.10;;;11.30;62.60;;;;;;5118912;27;20428;-76
2022/04/16 02:12:51;;;;;;;2.72;2.28;;;11.40;62.60;;;;;;5118872;27;20523;-76
2022/04/16 02:15:17;;;;;;;2.95;2.53;;;11.40;62.60;;;;;;5137536;27;20027;-76
2022/04/16 02:17:42;;;;;;;2.38;2.15;;;11.50;62.30;;;;;;5137095;27;20088;-76
2022/04/16 02:20:10;;;;;;;2.72;2.08;;;11.60;62.00;;;;;;5118654;27;20023;-75
2022/04/16 02:22:40;;;;;;;2.40;2.05;;;11.60;61.80;;;;;;5118680;27;20057;-76
2022/04/16 02:25:08;;;;;;;2.03;1.83;;;11.70;62.10;;;;;;5118594;27;20027;-76
2022/04/16 02:27:34;;;;;;;2.15;1.95;;;11.70;62.20;;;;;;5118544;27;20027;-76
2022/04/16 02:30:05;;;;;;;2.30;2.00;;;11.80;62.50;;;;;;5137024;27;20075;-76
2022/04/16 02:32:31;;;;;;;2.90;2.25;;;11.80;62.60;;;;;;5118569;27;20428;-76
2022/04/16 02:34:57;;;;;;;3.05;2.58;;;11.80;63.20;;;;;;5136258;27;20020;-76
2022/04/16 02:37:23;;;;;;;2.72;2.35;;;11.90;62.30;;;;;;5136601;27;20027;-76
2022/04/16 02:39:48;;;;;;;2.72;2.53;;;11.90;62.10;;;;;;5118010;27;20410;-76
2022/04/16 02:42:18;;;;;;;2.47;2.25;;;11.90;62.00;;;;;;5136471;27;20034;-76
2022/04/16 02:47:30;;;;;;;2.75;2.42;;;12.00;62.10;;;;;;5136506;27;20042;-76
2022/04/16 02:49:56;;;;;;;5.47;2.47;;;12.00;61.80;;;;;;5136661;27;20028;-76
2022/04/16 02:52:25;;;;;;;2.85;2.45;;;12.00;61.30;;;;;;5136612;27;20015;-75
2022/04/16 02:54:54;;;;;;;2.40;2.20;;;12.00;61.20;;;;;;5118103;27;20042;-76
2022/04/16 02:57:20;;;;;;;1.85;1.75;;;11.90;61.10;;;;;;5118028;27;20023;-74
2022/04/16 02:59:46;;;;;;;2.30;2.10;;;11.90;61.20;;;;;;5117836;27;20485;-76
2022/04/16 03:02:13;;;;;;;5.25;2.45;;;11.90;61.20;;;;;;5117992;27;20031;-74
2022/04/16 03:04:39;;;;;;;2.40;2.20;;;11.90;61.30;;;;;;5136322;27;20027;-74
2022/04/16 03:07:05;;;;;;;3.10;2.40;;;11.80;61.10;;;;;;5136268;27;20164;-74
2022/04/16 03:09:31;;;;;;;3.05;2.22;;;11.80;61.20;;;;;;5135805;27;20484;-75
2022/04/16 03:11:58;;;;;;;3.15;2.58;;;11.70;61.30;;;;;;5135808;27;20031;-74
2022/04/16 03:19:54;;;;;;;2.80;2.50;;;11.60;61.70;;;;;;5135735;27;20087;-76
2022/04/16 03:22:20;;;;;;;3.75;2.83;;;11.60;61.90;;;;;;5117504;27;20039;-76
2022/04/16 03:24:46;;;;;;;2.53;2.30;;;11.60;62.20;;;;;;5136271;27;20019;-76
2022/04/16 03:27:12;;;;;;;3.28;2.28;;;11.50;62.20;;;;;;5117459;27;20031;-76
2022/04/16 03:29:38;;;;;;;5.35;2.80;;;11.50;62.10;;;;;;5135834;27;20474;-76
2022/04/16 03:32:04;;;;;;;2.95;2.55;;;11.60;62.10;;;;;;5135872;27;20500;-76
2022/04/16 03:34:30;;;;;;;3.67;2.67;;;11.50;61.90;;;;;;5117256;27;20102;-76
2022/04/16 03:36:56;;;;;;;5.65;2.70;;;11.50;61.70;;;;;;5135685;27;20047;-76
2022/04/16 03:39:23;;;;;;;3.80;2.85;;;11.50;61.80;;;;;;5116794;27;20485;-76
2022/04/16 03:41:48;;;;;;;3.65;2.40;;;11.50;61.70;;;;;;5135359;27;20059;-77
2022/04/16 03:44:14;;;;;;;2.90;2.53;;;11.50;61.70;;;;;;5135312;27;20494;-76
2022/04/16 03:46:40;;;;;;;3.00;2.70;;;11.50;61.60;;;;;;5135105;27;20023;-76
2022/04/16 03:49:06;;;;;;;3.17;2.80;;;11.50;61.30;;;;;;5134997;27;20027;-77
2022/04/16 03:51:32;;;;;;;3.92;2.67;;;11.50;61.10;;;;;;5135384;27;20493;-77
2022/04/16 03:59:59;;;;;;;4.68;2.95;;;11.50;61.10;;;;;;5135432;27;20031;-76
2022/04/16 04:02:11;;;;;;;2.35;2.03;;;11.60;61.80;;;;;;5135099;27;20156;-76
2022/04/16 04:04:37;;;;;;;2.63;2.30;;;11.70;62.70;;;;;;5134740;27;20055;-77
2022/04/16 04:07:03;;;;;;;2.47;2.22;;;11.70;62.10;;;;;;5135195;27;20023;-76
2022/04/16 04:09:29;;;;;;;2.67;2.47;;;11.80;62.20;;;;;;5135147;27;20077;-76
2022/04/16 04:11:55;;;;;;;3.47;2.72;;;11.80;62.80;;;;;;5116639;27;20069;-76
2022/04/16 04:14:21;;;;;;;4.93;2.95;;;11.90;61.70;;;;;;5135073;27;20027;-77
2022/04/16 04:16:46;;;;;;;3.70;2.50;;;11.90;61.30;;;;;;5135001;27;20347;-76
2022/04/16 04:19:12;;;;;;;5.07;2.95;;;11.90;60.70;;;;;;5134744;27;20061;-75
2022/04/16 04:21:38;;;;;;;3.80;2.70;;;12.00;60.60;;;;;;5116477;27;20383;-75
2022/04/16 04:24:04;;;;;;;5.03;2.35;;;12.00;60.40;;;;;;5134838;27;20033;-75
2022/04/16 04:26:30;;;;;;;2.60;2.40;;;12.00;61.00;;;;;;5135043;27;20051;-75
2022/04/16 04:28:55;;;;;;;3.40;2.63;;;12.10;60.20;;;;;;5134420;27;20061;-75
2022/04/16 04:31:21;;;;;;;3.13;2.80;;;12.10;60.10;;;;;;5134449;27;20057;-75
2022/04/16 04:33:47;;;;;;;3.47;2.83;;;12.10;59.70;;;;;;5135119;27;20030;-75
2022/04/16 04:36:13;;;;;;;2.70;2.45;;;12.20;59.70;;;;;;5134425;27;20023;-75
2022/04/16 04:38:38;;;;;;;3.33;2.90;;;12.20;59.70;;;;;;5134650;27;20031;-76
2022/04/16 04:41:07;;;;;;;2.88;2.60;;;12.20;59.60;;;;;;5115958;27;20381;-74
2022/04/16 04:43:33;;;;;;;3.13;2.42;;;12.20;59.50;;;;;;5134679;27;20027;-77
2022/04/16 04:45:58;;;;;;;8.85;3.38;;;12.30;59.40;;;;;;5134582;27;20411;-75
2022/04/16 04:48:24;;;;;;;3.17;2.58;;;12.30;59.30;;;;;;5115962;28;20164;-77
2022/04/16 04:50:50;;;;;;;3.67;3.03;;;12.30;59.20;;;;;;5115761;27;20023;-78
2022/04/16 04:53:16;;;;;;;3.70;2.83;;;12.40;59.20;;;;;;5116123;27;20160;-78
2022/04/16 04:55:41;;;;;;;2.63;2.28;;;12.40;59.10;;;;;;5115963;27;20027;-75
2022/04/16 04:58:07;;;;;;;2.60;2.40;;;12.40;59.00;;;;;;5115717;27;20546;-76
2022/04/16 05:00:33;;;;;;;2.75;2.42;;;12.50;59.10;;;;;;5134122;27;20068;-76
2022/04/16 05:02:59;;;;;;;2.47;2.10;;;12.50;59.00;;;;;;5134424;28;20023;-76
2022/04/16 05:05:25;;;;;;;2.63;2.30;;;12.60;59.10;;;;;;5134421;28;20031;-76
2022/04/16 05:07:51;;;;;;;2.13;1.92;;;12.60;59.10;;;;;;5115893;28;20023;-76
2022/04/16 05:10:18;;;;;;;2.85;2.47;;;12.60;58.80;;;;;;5133986;28;20031;-78
2022/04/16 05:12:43;;;;;;;5.47;2.78;;;12.70;58.50;;;;;;5115892;28;20023;-78
2022/04/16 05:15:09;;;;;;;2.53;2.33;;;12.70;58.60;;;;;;5134584;28;20376;-78
2022/04/16 05:17:37;;;;;;;2.88;2.60;;;12.80;58.40;;;;;;5133658;28;20035;-78
2022/04/16 05:20:09;;;;;;;3.35;2.70;;;12.80;58.20;;;;;;5115863;28;20035;-78
2022/04/16 05:22:35;;;;;;;3.03;2.42;;;12.80;57.90;;;;;;5134217;28;20023;-78
2022/04/16 05:25:00;;;;;;;3.10;2.35;;;12.90;58.00;;;;;;5134468;28;20020;-78
2022/04/16 05:27:26;;;;;;;2.92;2.40;;;12.90;57.80;;;;;;5115693;28;20031;-78
2022/04/16 05:30:06;;;;;;;3.42;2.50;;;12.90;57.90;;;;;;5130937;28;20027;-78
2022/04/16 05:32:36;;;;;;;2.78;2.10;;;13.00;57.80;;;;;;5114865;28;20164;-78
2022/04/16 05:35:04;;;;;;;2.97;2.28;;;13.00;57.80;;;;;;5134642;28;20023;-78
2022/04/16 05:37:30;;;;;;;3.35;2.70;;;13.00;57.80;;;;;;5115585;28;20032;-78
2022/04/16 05:39:56;;;;;;;2.35;2.10;;;13.00;57.90;;;;;;5133785;27;20134;-78
2022/04/16 05:42:22;;;;;;;3.33;2.50;;;13.10;57.80;;;;;;5133810;28;20427;-78
2022/04/16 05:44:48;;;;;;;2.25;1.80;;;13.10;57.90;;;;;;5115917;28;20157;-78
2022/04/16 05:47:14;;;;;;;2.42;1.90;;;13.20;57.90;;;;;;5115540;28;20080;-78
2022/04/16 05:49:39;;;;;;;2.80;2.45;;;13.20;58.10;;;;;;5115548;28;20386;-78
2022/04/16 05:52:06;;;;;;;2.85;2.25;;;13.30;58.00;;;;;;5133954;28;20025;-76
2022/04/16 05:54:33;;;;;;;2.53;2.17;;;13.30;58.00;;;;;;5108470;28;20475;-76
2022/04/16 05:56:59;;;;;;;2.92;2.42;;;13.40;57.70;;;;;;5107433;28;20034;-76
2022/04/16 05:59:25;;;;;;;2.15;1.95;;;13.40;56.80;;;;;;5132663;28;20023;-75
2022/04/16 06:01:50;;;;;;;2.72;2.30;;;13.50;57.00;;;;;;5133523;28;20050;-74
2022/04/16 06:04:17;;;;;;;2.70;2.10;;;13.50;56.80;;;;;;5115283;28;20459;-74
2022/04/16 06:06:43;;;;;;;2.08;1.88;;;13.60;57.00;;;;;;5133730;28;20106;-73
2022/04/16 06:09:09;;;;;;;2.97;2.38;;;13.60;57.20;;;;;;5115236;28;20055;-73
2022/04/16 06:11:36;;;;;;;2.53;2.10;;;13.60;57.00;;;;;;5117517;27;20134;-73
2022/04/16 06:14:02;;;;;;;2.30;1.85;;;13.70;56.90;;;;;;5132404;27;20019;-72
2022/04/16 06:16:28;;;;;;;2.03;1.60;;;13.70;57.00;;;;;;5136885;27;20463;-74
2022/04/16 06:18:53;;;;;;;6.00;2.10;;;13.80;57.30;;;;;;5137227;27;20065;-73
2022/04/16 06:21:19;;;;;;;3.17;2.05;;;13.80;56.90;;;;;;5137235;27;20065;-73
2022/04/16 06:23:45;;;;;;;2.50;1.85;;;13.90;56.60;;;;;;5118727;27;20027;-73
2022/04/16 06:26:10;;;;;;;2.67;2.15;;;13.90;56.30;;;;;;5118387;27;20039;-75
2022/04/16 06:28:36;;;;;;;2.90;2.10;;;13.90;56.20;;;;;;5135813;27;20034;-75
2022/04/16 06:31:02;;;;;;;2.13;1.92;;;14.00;56.00;;;;;;5137060;27;20502;-73
2022/04/16 06:33:27;;;;;;;3.42;2.40;;;14.00;56.60;;;;;;5136920;27;20408;-75
2022/04/16 06:35:53;;;;;;;2.45;2.15;;;14.10;56.60;;;;;;5137038;27;20099;-75
2022/04/16 06:38:19;;;;;;;3.35;2.28;;;14.10;56.50;;;;;;5137154;27;20032;-76
2022/04/16 06:40:45;;;;;;;2.50;2.20;;;14.10;56.20;;;;;;5136452;27;20055;-76
2022/04/16 06:43:10;;;;;;;2.67;2.25;;;14.10;56.30;;;;;;5117376;27;20114;-77
2022/04/16 06:45:36;;;;;;;3.08;2.13;;;14.20;56.00;;;;;;5136641;27;20027;-75
2022/04/16 06:48:02;;;;;;;4.53;2.20;;;14.20;55.40;;;;;;5118296;27;20470;-74
2022/04/16 06:50:28;;;;;;;2.38;1.83;;;14.10;54.80;;;;;;5118202;27;20027;-75
2022/04/16 06:52:55;;;;;;;2.00;1.88;;;14.20;55.20;;;;;;5118161;27;20027;-75
2022/04/16 06:55:21;;;;;;;2.08;1.67;;;14.20;55.40;;;;;;5118171;27;20027;-75
2022/04/16 06:57:47;;;;;;;2.17;1.92;;;14.20;55.30;;;;;;5117791;27;20080;-75
2022/04/16 07:00:13;;;;;;;3.33;2.08;;;14.20;55.10;;;;;;5136515;27;20027;-75
2022/04/16 07:02:39;;;;;;;3.45;2.90;;;14.20;54.70;;;;;;5117847;27;20030;-75
2022/04/16 07:05:07;;;;;;;5.13;3.75;;;14.20;54.40;;;;;;5117812;27;20379;-75
2022/04/16 07:07:33;;;;;;;4.95;3.33;;;14.20;53.80;;;;;;5136381;27;20030;-75
2022/04/16 07:09:59;;;;;;;5.30;3.80;;;14.10;53.30;;;;;;5117885;27;20034;-75
2022/04/16 07:12:25;;;;;;;4.95;3.70;;;14.10;53.10;;;;;;5117907;27;20023;-75
2022/04/16 07:14:51;;;;;;;4.57;3.65;;;14.00;53.00;;;;;;5136078;27;20038;-75
2022/04/16 07:17:17;;;;;;;5.60;3.70;;;14.00;53.10;;;;;;5136190;27;20023;-75
2022/04/16 07:19:42;;;;;;;5.35;3.85;;;14.00;53.00;;;;;;5117642;27;20083;-75
2022/04/16 07:22:08;;;;;;;4.22;3.33;;;14.00;53.40;;;;;;5117577;27;20467;-75
2022/04/16 07:24:37;;;;;;;5.63;3.75;;;13.90;53.40;;;;;;5135325;27;20106;-76
2022/04/16 07:27:06;;;;;;;4.57;3.63;;;14.00;53.30;;;;;;5136028;27;20027;-75
2022/04/16 07:29:31;;;;;;;4.47;3.55;;;13.90;52.60;;;;;;5117166;27;20027;-78
2022/04/16 07:31:57;;;;;;;6.50;4.30;;;13.90;52.50;;;;;;5117462;27;20079;-75
2022/04/16 07:34:25;;;;;;;7.80;4.53;;;13.90;52.50;;;;;;5135755;27;20043;-75
2022/04/16 07:36:51;;;;;;;7.60;4.93;;;13.80;52.80;;;;;;5117279;27;20382;-75
2022/04/16 07:39:17;;;;;;;6.88;5.45;;;13.80;52.60;;;;;;5116814;27;20046;-75
2022/04/16 07:41:42;;;;;;;7.60;5.25;;;13.80;52.90;;;;;;5117272;27;20065;-75
2022/04/16 07:44:08;;;;;;;7.20;5.20;;;13.90;52.80;;;;;;5117106;27;20027;-76
2022/04/16 07:46:35;;;;;;;11.52;5.90;;;13.80;52.70;;;;;;5134949;27;20053;-75
2022/04/16 07:49:02;;;;;;;7.68;5.63;;;13.80;52.90;;;;;;5134949;27;20068;-75
2022/04/16 07:51:29;;;;;;;7.63;5.60;;;13.90;52.60;;;;;;5116990;27;20114;-76
2022/04/16 07:53:56;;;;;;;9.93;6.40;;;13.90;52.60;;;;;;5117020;27;20519;-75
2022/04/16 07:56:23;;;;;;;9.57;6.20;;;13.90;52.60;;;;;;5116939;27;20031;-75
2022/04/16 07:58:50;;;;;;;7.95;5.13;;;14.00;53.10;;;;;;5116833;27;20180;-77
2022/04/16 08:01:17;;;;;;;7.88;5.38;;;14.10;53.00;;;;;;5135290;27;20034;-75
2022/04/16 08:03:43;;;;;;;9.88;6.63;;;14.20;54.00;;;;;;5134954;27;20031;-75
2022/04/16 08:06:09;;;;;;;10.93;6.65;;;14.30;53.50;;;;;;5134907;27;20030;-75
2022/04/16 08:08:35;;;;;;;9.00;6.63;;;14.40;52.80;;;;;;5116840;27;20027;-75
2022/04/16 08:11:01;;;;;;;11.52;7.35;;;14.50;52.90;;;;;;5134612;27;20028;-75
2022/04/16 08:13:27;;;;;;;12.65;7.60;;;14.60;52.20;;;;;;5121012;27;20034;-76
2022/04/16 08:15:52;;;;;;;9.70;6.47;;;14.60;51.60;;;;;;5116569;27;20058;-75
2022/04/16 08:18:18;;;;;;;9.50;6.25;;;14.70;51.10;;;;;;5134525;27;20034;-73
2022/04/16 08:20:45;;;;;;;7.13;5.05;;;14.80;51.30;;;;;;5134946;27;20482;-73
2022/04/16 08:23:11;;;;;;;8.30;4.70;;;14.90;52.00;;;;;;5135120;27;20344;-75
2022/04/16 08:28:05;;;;;;;6.68;4.28;;;14.90;50.10;;;;;;5134391;27;20059;-75
2022/04/16 08:30:31;;;;;;;5.45;3.72;;;15.00;50.00;;;;;;5125630;27;20110;-76
2022/04/16 08:32:58;;;;;;;5.55;3.72;;;15.00;50.10;;;;;;5134069;27;20411;-75
2022/04/16 08:35:24;;;;;;;6.35;4.05;;;15.00;50.30;;;;;;5101166;28;20019;-75
2022/04/16 08:37:50;;;;;;;5.25;3.40;;;15.10;51.50;;;;;;5111561;28;20028;-75
2022/04/16 08:40:18;;;;;;;3.53;2.80;;;15.10;50.60;;;;;;5128634;27;20466;-76
2022/04/16 08:42:50;;;;;;;2.92;2.42;;;15.20;50.50;;;;;;5095335;28;20124;-75
2022/04/16 08:45:16;;;;;;;4.32;2.72;;;15.20;49.20;;;;;;5095671;28;20059;-75
2022/04/16 08:47:44;;;;;;;3.22;2.05;;;15.20;49.10;;;;;;5111303;27;20054;-75
2022/04/16 08:50:11;;;;;;;3.13;2.30;;;15.20;48.90;;;;;;5115707;28;20030;-74
2022/04/16 08:52:39;;;;;;;3.53;2.00;;;15.20;49.60;;;;;;5129542;27;20028;-75
2022/04/16 08:55:09;;;;;;;3.05;1.98;;;15.20;49.30;;;;;;5114156;28;20026;-75
2022/04/16 08:57:34;;;;;;;2.28;1.73;;;15.20;48.70;;;;;;5096591;28;20031;-75
2022/04/16 09:00:00;;;;;;;2.42;1.60;;;15.20;48.60;;;;;;5113498;28;20036;-74
2022/04/16 09:02:28;;;;;;;4.20;1.52;;;15.30;49.00;;;;;;5117216;28;20070;-74
2022/04/16 09:05:10;;;;;;;1.73;1.40;;;15.20;47.70;;;;;;5112295;28;20035;-75
2022/04/16 09:07:51;;;;;;;1.75;1.40;;;15.20;47.60;;;;;;5129198;28;20023;-74
2022/04/16 09:10:17;;;;;;;1.52;1.33;;;15.20;47.00;;;;;;5104987;28;20058;-75
2022/04/16 09:12:45;;;;;;;1.45;1.20;;;15.30;46.80;;;;;;5114844;28;20467;-75
2022/04/16 09:15:13;;;;;;;2.50;1.73;;;15.30;47.70;;;;;;5110234;28;20028;-74
2022/04/16 09:17:40;;;;;;;1.85;1.45;;;15.40;46.70;;;;;;5105532;28;20051;-74
2022/04/16 09:20:10;;;;;;;1.88;1.63;;;15.60;47.30;;;;;;5103297;28;20505;-74
2022/04/16 09:22:38;;;;;;;2.17;1.40;;;15.80;47.10;;;;;;5095367;28;20019;-74
2022/04/16 09:25:14;;;;;;;3.20;1.70;;;16.10;47.70;;;;;;5095333;28;20024;-75
2022/04/16 09:27:50;;;;;;;4.00;1.92;;;16.40;47.90;;;;;;5095106;28;20118;-76
2022/04/16 09:30:23;;;;;;;3.13;1.83;;;16.60;47.60;;;;;;5113273;28;20028;-75
2022/04/16 09:32:49;;;;;;;3.03;1.95;;;16.90;47.20;;;;;;5095095;28;20028;-76
2022/04/16 09:35:31;;;;;;;3.70;2.13;;;17.00;45.90;;;;;;5116857;27;20063;-75
2022/04/16 09:37:58;;;;;;;2.60;2.10;;;17.10;43.90;;;;;;5130886;27;20035;-74
2022/04/16 09:40:29;;;;;;;3.78;2.38;;;17.10;42.60;;;;;;5094906;28;20048;-74
2022/04/16 09:42:56;;;;;;;3.08;2.42;;;17.00;42.70;;;;;;5114020;28;20374;-74
2022/04/16 09:45:22;;;;;;;3.08;2.63;;;16.90;42.60;;;;;;5090608;28;20463;-74
2022/04/16 09:47:49;;;;;;;4.40;3.22;;;16.90;42.50;;;;;;5098744;28;20055;-74
2022/04/16 09:50:18;;;;;;;6.03;3.78;;;16.70;42.00;;;;;;5135071;27;20027;-75
2022/04/16 09:52:47;;;;;;;5.43;3.28;;;16.60;42.20;;;;;;5123042;27;20050;-74
2022/04/16 09:55:13;;;;;;;5.55;3.63;;;16.50;42.50;;;;;;5124981;27;20026;-75
2022/04/16 09:57:41;;;;;;;5.78;3.78;;;16.50;42.30;;;;;;5130748;27;20138;-73
2022/04/16 10:00:08;;;;;;;6.35;4.40;;;16.40;42.10;;;;;;5133582;27;20031;-73
2022/04/16 10:02:35;;;;;;;4.90;3.90;;;16.30;41.40;;;;;;5108979;28;20034;-74
2022/04/16 10:05:01;;;;;;;5.75;3.70;;;16.10;41.40;;;;;;5106769;27;20077;-74
2022/04/16 10:07:27;;;;;;;6.65;3.95;;;16.00;41.70;;;;;;5110294;28;20379;-74
2022/04/16 10:09:53;;;;;;;4.80;3.60;;;16.00;41.80;;;;;;5126923;27;20085;-74
2022/04/16 10:15:07;;;;;;;5.53;4.03;;;15.90;42.10;;;;;;5127434;27;20023;-74
2022/04/16 10:17:42;;;;;;;;;;;15.90;42.20;;;;;;5119155;27;20028;-75
2022/04/16 10:20:15;;;;;;;5.07;3.40;;;16.00;43.40;;;;;;5136711;27;20278;-74
2022/04/16 10:22:55;;;;;;;5.72;3.60;;;15.90;41.60;;;;;;5106327;27;20076;-74
2022/04/16 10:25:41;;;;;;;4.35;3.50;;;15.90;41.10;;;;;;5137049;27;20019;-74
2022/04/16 10:28:12;;;;;;;4.72;3.63;;;15.80;41.20;;;;;;5118325;27;20506;-74
2022/04/16 10:30:58;;;;;;;5.35;3.88;;;15.70;41.00;;;;;;5136326;27;20035;-74
2022/04/16 10:33:27;;;;;;;4.43;3.33;;;15.70;41.30;;;;;;5108185;27;20536;-74
2022/04/16 10:35:56;;;;;;;5.78;3.75;;;15.60;41.10;;;;;;5092582;28;20123;-73
2022/04/16 10:38:41;;;;;;;7.63;4.28;;;15.60;41.40;;;;;;5097681;28;20447;-74
2022/04/16 10:41:15;;;;;;;5.50;3.70;;;15.50;41.30;;;;;;5105658;27;20119;-74
2022/04/16 10:43:52;;;;;;;6.85;3.60;;;15.50;41.30;;;;;;5116363;27;20466;-74
2022/04/16 10:46:18;;;;;;;4.70;3.40;;;15.60;41.90;;;;;;5117994;27;20535;-74
2022/04/16 10:48:45;;;;;;;5.10;3.95;;;15.60;41.60;;;;;;5117462;27;20027;-74
2022/04/16 10:51:11;;;;;;;5.20;3.90;;;15.70;41.40;;;;;;5109513;28;20027;-73
2022/04/16 10:53:38;;;;;;;5.55;3.85;;;15.80;40.90;;;;;;5128139;27;20026;-73
2022/04/16 10:56:11;;;;;;;8.75;4.35;;;15.80;41.10;;;;;;5136127;27;20019;-73
2022/04/16 10:58:37;;;;;;;4.55;3.22;;;15.80;40.80;;;;;;5118056;27;20023;-73
2022/04/16 11:01:11;;;;;;;4.95;3.50;;;15.90;41.10;;;;;;5136534;27;20427;-74
2022/04/16 11:03:48;;;;;;;5.07;3.92;;;15.90;41.10;;;;;;5118020;27;20027;-74
2022/04/16 11:06:17;;;;;;;4.82;3.92;;;15.80;40.20;;;;;;5136382;27;20027;-74
2022/04/16 11:08:48;;;;;;;6.85;3.60;;;15.80;40.40;;;;;;5117852;27;20565;-74
2022/04/16 11:11:14;;;;;;;4.80;3.60;;;15.80;40.60;;;;;;5136063;27;20030;-74
2022/04/16 11:13:42;;;;;;;4.35;3.50;;;15.80;40.20;;;;;;5117795;27;20114;-73
2022/04/16 11:16:09;;;;;;;5.13;4.00;;;15.80;40.50;;;;;;5117805;27;20030;-74
2022/04/16 11:18:45;;;;;;;4.55;3.42;;;15.80;39.80;;;;;;5117465;27;20035;-74
2022/04/16 11:21:13;;;;;;;4.22;2.97;;;15.80;39.90;;;;;;5136058;27;20420;-74
2022/04/16 11:23:44;;;;;;;4.40;3.60;;;15.80;40.60;;;;;;5136066;27;20023;-75
2022/04/16 11:34:30;;;;;;;8.85;2.78;;;16.30;41.00;;;;;;5135849;27;20030;-76
2022/04/16 11:36:58;;;;;;;3.83;2.67;;;16.50;40.40;;;;;;5117049;27;20027;-74
2022/04/16 11:39:31;;;;;;;3.90;2.92;;;16.60;39.70;;;;;;5135534;27;20446;-74
2022/04/16 11:41:59;;;;;;;3.70;2.40;;;16.70;39.10;;;;;;5135990;27;20030;-74
2022/04/16 11:44:50;;;;;;;3.47;2.30;;;16.70;38.70;;;;;;5117070;27;20029;-74
2022/04/16 11:47:37;;;;;;;3.13;2.33;;;16.70;38.50;;;;;;5117149;27;20027;-75
2022/04/16 11:50:06;;;;;;;4.05;2.85;;;16.60;37.70;;;;;;5117301;27;20030;-75
2022/04/16 11:52:34;;;;;;;2.88;2.50;;;16.40;37.40;;;;;;5117078;27;20473;-74
2022/04/16 11:55:22;;;;;;;3.20;2.45;;;16.30;37.80;;;;;;5116962;27;20023;-74
2022/04/16 11:57:54;;;;;;;3.80;2.65;;;16.20;38.00;;;;;;5135019;27;20435;-73
2022/04/16 12:00:22;;;;;;;4.43;2.50;;;16.10;38.20;;;;;;5135528;27;20035;-74
2022/04/16 12:02:55;;;;;;;3.55;2.53;;;16.10;38.50;;;;;;5116828;27;20027;-74
2022/04/16 12:05:26;;;;;;;2.53;2.33;;;16.00;38.50;;;;;;5135276;27;20050;-74
2022/04/16 12:07:53;;;;;;;3.22;2.40;;;16.00;38.90;;;;;;5134458;27;20038;-74
2022/04/16 12:10:20;;;;;;;2.10;1.90;;;16.10;38.80;;;;;;5116501;27;20378;-75
2022/04/16 12:12:53;;;;;;;2.40;1.95;;;16.10;38.30;;;;;;5116824;27;20142;-74
2022/04/16 12:15:24;;;;;;;2.15;1.90;;;16.10;37.70;;;;;;5116753;27;20459;-75
2022/04/16 12:17:52;;;;;;;1.67;1.55;;;16.00;37.70;;;;;;5134988;27;20054;-74
2022/04/16 12:20:20;;;;;;;2.05;1.70;;;16.00;37.70;;;;;;5116516;27;20030;-75
2022/04/16 12:23:02;;;;;;;3.03;1.90;;;16.10;38.20;;;;;;5116542;27;20023;-74
2022/04/16 12:25:29;;;;;;;3.33;1.85;;;16.10;37.70;;;;;;5116443;27;20023;-74
2022/04/16 12:28:00;;;;;;;2.40;1.80;;;16.20;37.70;;;;;;5134799;27;20015;-74
2022/04/16 12:30:33;;;;;;;1.60;1.50;;;16.20;37.60;;;;;;5116269;27;20026;-74
2022/04/16 12:33:07;;;;;;;4.18;2.38;;;16.30;37.80;;;;;;5134809;27;20028;-74
2022/04/16 12:35:34;;;;;;;;;;;16.30;37.40;;;;;;5116461;27;20043;-74
2022/04/16 12:38:01;;;;;;;4.80;2.30;;;16.30;38.50;;;;;;5115965;27;19907;-74
2022/04/16 12:40:29;;;;;;;3.33;2.70;;;16.30;36.80;;;;;;5134134;27;20059;-74
2022/04/16 12:42:57;;;;;;;3.95;2.53;;;16.20;36.70;;;;;;5134629;27;20030;-74
2022/04/16 12:45:24;;;;;;;2.72;2.28;;;16.10;36.40;;;;;;5116120;27;20023;-74
2022/04/16 12:47:53;;;;;;;3.47;2.63;;;16.00;36.90;;;;;;5116089;27;20123;-74
2022/04/16 12:50:20;;;;;;;3.00;2.33;;;16.00;37.30;;;;;;5134212;27;20571;-74
2022/04/16 12:52:47;;;;;;;2.95;2.55;;;15.90;37.30;;;;;;5116019;27;20522;-74
2022/04/16 12:55:14;;;;;;;2.50;2.30;;;15.90;37.00;;;;;;5134465;27;20023;-74
2022/04/16 12:57:40;;;;;;;2.92;2.47;;;15.80;37.00;;;;;;5116074;28;20023;-74
2022/04/16 13:00:14;;;;;;;3.65;2.50;;;15.70;36.80;;;;;;5134018;27;20042;-74
2022/04/16 13:02:43;;;;;;;3.35;2.78;;;15.70;37.10;;;;;;5134448;27;20029;-74
2022/04/16 13:05:10;;;;;;;3.80;2.53;;;15.70;37.70;;;;;;5134236;28;20470;-74
2022/04/16 13:07:37;;;;;;;4.13;2.80;;;15.60;37.50;;;;;;5115906;28;20052;-74
2022/04/16 13:10:04;;;;;;;4.43;2.45;;;15.70;37.60;;;;;;5115790;28;20080;-74
2022/04/16 13:12:37;;;;;;;4.63;2.83;;;15.60;37.30;;;;;;5134116;28;20027;-74
2022/04/16 13:15:04;;;;;;;3.67;2.95;;;15.60;36.90;;;;;;5115804;28;20027;-75
2022/04/16 13:17:30;;;;;;;2.83;2.40;;;15.60;37.20;;;;;;5134145;28;20019;-74